Time;durP1;ratioP1;P1;durP2;ratioP2;P2;SDS_P1;SDS_P2;PMS_P1;PMS_P2;Temp;Humidity;BMP_temperature;BMP_pressure;BME280_temperature;BME280_humidity;BME280_pressure;Samples;Min_cycle;Max_cycle;Signal;HPM_P1;HPM_P2
2020/12/20 00:02:06;;;;;;;8.87;7.00;;;10.30;99.90;;;;;;4978200;28;20444;-81
2020/12/20 00:04:34;;;;;;;10.60;6.60;;;10.30;99.90;;;;;;5001535;28;20760;-82
2020/12/20 00:07:00;;;;;;;10.80;6.83;;;10.30;99.90;;;;;;4990925;28;20437;-82
2020/12/20 00:09:26;;;;;;;8.67;6.87;;;10.40;99.90;;;;;;4982711;28;20488;-82
2020/12/20 00:11:53;;;;;;;9.47;7.10;;;10.40;99.90;;;;;;4994952;28;20433;-82
2020/12/20 00:14:34;;;;;;;7.57;6.20;;;10.40;99.90;;;;;;4994099;28;20828;-81
2020/12/20 00:17:02;;;;;;;8.83;6.87;;;10.30;99.90;;;;;;4994956;28;20405;-82
2020/12/20 00:19:31;;;;;;;8.80;6.90;;;10.40;99.90;;;;;;4993195;28;20437;-82
2020/12/20 00:22:11;;;;;;;9.00;6.10;;;10.50;99.90;;;;;;5010444;28;20436;-82
2020/12/20 00:24:38;;;;;;;7.63;6.50;;;10.50;99.90;;;;;;4994862;28;20737;-82
2020/12/20 00:27:05;;;;;;;6.73;5.80;;;10.50;99.90;;;;;;4994744;28;20426;-81
2020/12/20 00:29:32;;;;;;;7.50;6.33;;;10.50;99.90;;;;;;4998109;28;20469;-81
2020/12/20 00:32:00;;;;;;;10.77;6.40;;;10.50;99.90;;;;;;5014268;28;20489;-82
2020/12/20 00:34:26;;;;;;;11.00;6.50;;;10.60;99.90;;;;;;5013669;28;20428;-82
2020/12/20 00:36:52;;;;;;;6.30;5.50;;;10.50;99.90;;;;;;5014556;28;20417;-81
2020/12/20 00:39:20;;;;;;;7.93;6.13;;;10.60;99.90;;;;;;5004334;28;20512;-81
2020/12/20 00:41:54;;;;;;;9.07;6.03;;;10.60;99.90;;;;;;4996931;28;20800;-81
2020/12/20 00:44:22;;;;;;;7.83;6.30;;;10.60;99.90;;;;;;5014056;28;20516;-82
2020/12/20 00:46:49;;;;;;;10.03;7.00;;;10.60;99.90;;;;;;5014346;28;20482;-82
2020/12/20 00:49:15;;;;;;;6.10;5.50;;;10.60;99.90;;;;;;5011297;28;20618;-82
2020/12/20 00:51:44;;;;;;;6.80;5.80;;;10.60;99.90;;;;;;4999135;28;20455;-81
2020/12/20 00:54:13;;;;;;;6.90;5.87;;;10.50;99.90;;;;;;4996817;28;20409;-82
2020/12/20 00:56:45;;;;;;;6.20;5.30;;;10.50;99.90;;;;;;4996189;28;20913;-82
2020/12/20 00:59:17;;;;;;;10.50;7.27;;;10.60;99.90;;;;;;5013364;28;20486;-81
2020/12/20 01:01:58;;;;;;;8.50;6.83;;;10.50;99.90;;;;;;4960384;28;20418;-82
2020/12/20 01:04:28;;;;;;;7.93;6.17;;;10.60;99.90;;;;;;4971963;28;20420;-82
2020/12/20 01:06:56;;;;;;;7.17;5.30;;;10.60;99.90;;;;;;4996722;28;20440;-82
2020/12/20 01:09:24;;;;;;;9.30;5.67;;;10.50;99.90;;;;;;4974301;28;20527;-82
2020/12/20 01:11:56;;;;;;;7.20;5.23;;;10.50;99.90;;;;;;4993398;28;20512;-82
2020/12/20 01:14:25;;;;;;;8.47;5.30;;;10.50;99.90;;;;;;4998003;28;20448;-82
2020/12/20 01:17:04;;;;;;;6.10;5.30;;;10.50;99.90;;;;;;4992679;28;20437;-82
2020/12/20 01:19:30;;;;;;;6.07;5.20;;;10.50;99.90;;;;;;4977251;28;20432;-81
2020/12/20 01:21:56;;;;;;;7.17;5.67;;;10.50;99.90;;;;;;4977282;28;20426;-82
2020/12/20 01:24:23;;;;;;;6.07;5.47;;;10.60;99.90;;;;;;4978254;28;20429;-81
2020/12/20 01:26:56;;;;;;;6.13;5.53;;;10.60;99.90;;;;;;4977679;28;20422;-83
2020/12/20 01:29:25;;;;;;;7.50;5.00;;;10.60;99.90;;;;;;4996683;28;20465;-82
2020/12/20 01:31:51;;;;;;;6.17;5.13;;;10.60;99.90;;;;;;4999741;28;20523;-82
2020/12/20 01:34:21;;;;;;;5.70;5.10;;;10.70;99.90;;;;;;5000026;28;20424;-81
2020/12/20 01:36:47;;;;;;;7.20;5.30;;;10.70;99.90;;;;;;5000079;28;20428;-81
2020/12/20 01:39:15;;;;;;;6.97;5.50;;;10.70;99.90;;;;;;5016912;28;20439;-82
2020/12/20 01:41:42;;;;;;;7.30;5.83;;;10.70;99.90;;;;;;4983897;28;20471;-82
2020/12/20 01:44:15;;;;;;;5.50;5.00;;;10.70;99.90;;;;;;5016121;28;20435;-82
2020/12/20 01:46:45;;;;;;;7.53;5.30;;;10.70;99.90;;;;;;5000036;28;20441;-82
2020/12/20 01:49:20;;;;;;;6.30;5.70;;;10.70;99.90;;;;;;5012923;28;20425;-82
2020/12/20 01:51:50;;;;;;;6.50;5.00;;;10.70;99.90;;;;;;4983645;28;20443;-82
2020/12/20 01:54:19;;;;;;;6.10;5.07;;;10.80;99.90;;;;;;5016362;28;20900;-82
2020/12/20 01:57:02;;;;;;;6.60;4.93;;;10.80;99.90;;;;;;4999730;28;20842;-82
2020/12/20 01:59:45;;;;;;;6.90;5.77;;;10.80;99.90;;;;;;5000045;28;20892;-82
2020/12/20 02:02:15;;;;;;;6.80;4.87;;;10.90;99.90;;;;;;4999521;28;20441;-82
2020/12/20 02:04:46;;;;;;;6.40;4.63;;;10.90;99.90;;;;;;4999776;28;20475;-82
2020/12/20 02:07:15;;;;;;;6.70;5.10;;;11.00;99.90;;;;;;4981724;28;20777;-82
2020/12/20 02:09:44;;;;;;;6.57;4.33;;;10.90;99.90;;;;;;4996711;28;20473;-82
2020/12/20 02:12:18;;;;;;;6.63;5.83;;;11.00;99.90;;;;;;4998277;28;20465;-82
2020/12/20 02:15:05;;;;;;;6.50;4.47;;;11.00;99.90;;;;;;4992640;28;20487;-82
2020/12/20 02:17:31;;;;;;;6.67;5.40;;;11.00;99.90;;;;;;5012508;28;20422;-82
2020/12/20 02:19:57;;;;;;;6.90;4.50;;;11.00;99.90;;;;;;4990780;28;20461;-82
2020/12/20 02:22:57;;;;;;;10.20;5.30;;;10.90;99.90;;;;;;5014037;28;20436;-82
2020/12/20 02:25:28;;;;;;;11.57;5.30;;;10.90;99.90;;;;;;4999225;28;20437;-82
2020/12/20 02:28:01;;;;;;;6.57;5.10;;;10.90;99.90;;;;;;4999423;28;20443;-81
2020/12/20 02:30:35;;;;;;;6.20;5.10;;;10.90;99.90;;;;;;4997825;28;20476;-82
2020/12/20 02:33:07;;;;;;;13.53;5.60;;;10.90;99.90;;;;;;5012276;28;20503;-82
2020/12/20 02:35:32;;;;;;;6.90;4.93;;;10.80;99.90;;;;;;4996877;28;20429;-82
2020/12/20 02:38:01;;;;;;;6.10;5.13;;;10.80;99.90;;;;;;4999151;28;20914;-82
2020/12/20 02:40:30;;;;;;;8.33;4.87;;;10.80;99.90;;;;;;4996854;28;20433;-81
2020/12/20 02:43:06;;;;;;;6.90;4.50;;;10.80;99.90;;;;;;4995557;28;20413;-82
2020/12/20 02:45:32;;;;;;;6.10;5.13;;;10.80;99.90;;;;;;4982513;28;20559;-82
2020/12/20 02:47:58;;;;;;;7.33;5.30;;;10.80;99.90;;;;;;4992913;28;20448;-82
2020/12/20 02:50:25;;;;;;;7.03;5.50;;;10.80;99.90;;;;;;5015143;28;20476;-82
2020/12/20 02:52:50;;;;;;;7.33;5.17;;;10.90;99.90;;;;;;5015892;28;20429;-82
2020/12/20 02:55:17;;;;;;;7.20;4.90;;;10.90;99.90;;;;;;4999101;28;20519;-82
2020/12/20 02:57:49;;;;;;;9.20;5.07;;;10.90;99.90;;;;;;4991402;28;20947;-82
2020/12/20 03:00:44;;;;;;;8.23;5.43;;;10.90;99.90;;;;;;4996360;28;20817;-82
2020/12/20 03:03:14;;;;;;;7.20;5.43;;;10.90;99.90;;;;;;5014888;28;20413;-82
2020/12/20 03:05:45;;;;;;;5.20;4.80;;;10.80;99.90;;;;;;4982222;28;20452;-82
2020/12/20 03:08:11;;;;;;;8.13;5.00;;;10.80;99.90;;;;;;4982353;28;20429;-79
2020/12/20 03:10:37;;;;;;;6.80;5.67;;;10.80;99.90;;;;;;4998206;28;20559;-82
2020/12/20 03:13:04;;;;;;;6.13;5.50;;;10.70;99.90;;;;;;4998937;28;20451;-83
2020/12/20 03:15:38;;;;;;;8.30;5.30;;;10.70;99.90;;;;;;4995477;28;20513;-83
2020/12/20 03:18:09;;;;;;;6.60;5.20;;;10.70;99.90;;;;;;4991487;28;21048;-82
2020/12/20 03:20:38;;;;;;;6.20;4.57;;;10.70;99.90;;;;;;5014349;28;20524;-82
2020/12/20 03:23:04;;;;;;;9.03;5.83;;;10.70;99.90;;;;;;4998421;28;20539;-82
2020/12/20 03:26:06;;;;;;;7.40;5.60;;;10.70;99.90;;;;;;5001079;28;20489;-82
2020/12/20 03:29:04;;;;;;;6.10;5.50;;;10.70;99.90;;;;;;5010145;28;20428;-82
2020/12/20 03:31:53;;;;;;;7.60;5.13;;;10.70;99.90;;;;;;4998403;28;20520;-82
2020/12/20 03:34:44;;;;;;;5.80;5.27;;;10.60;99.90;;;;;;5009668;28;20819;-82
2020/12/20 03:37:15;;;;;;;6.50;5.17;;;10.60;99.90;;;;;;4998139;28;20416;-82
2020/12/20 03:39:54;;;;;;;7.27;6.10;;;10.60;99.90;;;;;;5014629;28;20734;-82
2020/12/20 03:42:27;;;;;;;8.60;5.93;;;10.50;99.90;;;;;;4998655;28;20420;-82
2020/12/20 03:44:55;;;;;;;7.03;6.00;;;10.50;99.90;;;;;;4998480;28;20707;-82
2020/12/20 03:47:24;;;;;;;8.60;5.57;;;10.40;99.90;;;;;;4997683;28;20424;-82
2020/12/20 03:49:50;;;;;;;6.90;5.87;;;10.40;99.90;;;;;;4997851;28;20547;-81
2020/12/20 03:52:19;;;;;;;8.20;6.10;;;10.40;99.90;;;;;;5009957;28;20444;-82
2020/12/20 03:54:55;;;;;;;7.27;5.97;;;10.50;99.90;;;;;;4994256;28;20821;-80
2020/12/20 03:57:24;;;;;;;10.63;5.70;;;10.40;99.90;;;;;;4995285;28;20422;-80
2020/12/20 03:59:50;;;;;;;9.50;5.60;;;10.40;99.90;;;;;;4979073;28;20432;-82
2020/12/20 04:02:17;;;;;;;9.67;5.93;;;10.40;99.90;;;;;;4997473;28;20444;-80
2020/12/20 04:04:43;;;;;;;8.33;6.00;;;10.40;99.90;;;;;;5013302;28;20444;-82
2020/12/20 04:07:12;;;;;;;7.13;5.87;;;10.40;99.90;;;;;;4997409;28;20479;-82
2020/12/20 04:09:46;;;;;;;6.27;5.20;;;10.30;99.90;;;;;;4981380;28;20489;-82
2020/12/20 04:12:17;;;;;;;8.60;6.57;;;10.30;99.90;;;;;;4978089;28;20429;-82
2020/12/20 04:14:45;;;;;;;7.10;6.40;;;10.40;99.90;;;;;;4978201;28;20464;-82
2020/12/20 04:17:15;;;;;;;7.93;5.83;;;10.40;99.90;;;;;;4969516;28;20882;-82
2020/12/20 04:19:41;;;;;;;9.33;6.17;;;10.30;99.90;;;;;;5013993;28;20432;-82
2020/12/20 04:22:21;;;;;;;7.07;5.87;;;10.20;99.90;;;;;;4996935;28;20454;-82
2020/12/20 04:25:11;;;;;;;8.13;6.30;;;10.30;99.90;;;;;;5013497;28;20428;-82
2020/12/20 04:27:57;;;;;;;11.87;7.17;;;10.30;99.90;;;;;;5014324;28;20765;-82
2020/12/20 04:30:24;;;;;;;6.80;6.17;;;10.30;99.90;;;;;;4996737;28;20476;-82
2020/12/20 04:32:50;;;;;;;10.10;6.97;;;10.30;99.90;;;;;;4997065;28;20417;-81
2020/12/20 04:35:19;;;;;;;9.20;5.93;;;10.30;99.90;;;;;;4996861;28;20515;-81
2020/12/20 04:37:49;;;;;;;7.73;6.10;;;10.30;99.90;;;;;;5013125;28;20507;-82
2020/12/20 04:40:28;;;;;;;8.50;6.10;;;10.30;99.90;;;;;;4980484;28;20453;-82
2020/12/20 04:43:02;;;;;;;8.57;6.43;;;10.30;99.90;;;;;;4999038;28;20776;-82
2020/12/20 04:45:32;;;;;;;10.23;6.77;;;10.30;99.90;;;;;;5013376;28;20428;-82
2020/12/20 04:48:02;;;;;;;8.37;6.30;;;10.30;99.90;;;;;;4996682;28;20453;-82
2020/12/20 04:50:34;;;;;;;7.17;6.43;;;10.30;99.90;;;;;;4996710;28;20479;-81
2020/12/20 04:53:00;;;;;;;6.53;5.70;;;10.30;99.90;;;;;;4996393;28;20440;-81
2020/12/20 04:55:45;;;;;;;12.20;5.60;;;10.30;99.90;;;;;;4996723;28;20421;-82
2020/12/20 04:58:22;;;;;;;8.00;6.63;;;10.30;99.90;;;;;;4996496;28;20438;-82
2020/12/20 05:00:48;;;;;;;7.87;6.40;;;10.30;99.90;;;;;;4996987;28;20530;-82
2020/12/20 05:03:17;;;;;;;9.03;6.90;;;10.30;99.90;;;;;;4995468;28;20548;-82
2020/12/20 05:05:48;;;;;;;9.63;6.47;;;10.30;99.90;;;;;;5016313;28;20451;-82
2020/12/20 05:08:14;;;;;;;8.23;6.70;;;10.40;99.90;;;;;;5032733;28;20459;-81
2020/12/20 05:10:41;;;;;;;10.33;6.90;;;10.40;99.90;;;;;;5000787;28;20785;-81
2020/12/20 05:13:11;;;;;;;9.40;6.43;;;10.40;99.90;;;;;;4967774;28;20458;-81
2020/12/20 05:15:40;;;;;;;9.87;6.30;;;10.40;99.90;;;;;;4965503;28;20524;-79
2020/12/20 05:18:26;;;;;;;8.00;6.63;;;10.30;99.90;;;;;;4983726;28;20434;-81
2020/12/20 05:21:00;;;;;;;8.03;6.83;;;10.30;99.90;;;;;;4982848;28;20488;-82
2020/12/20 05:23:32;;;;;;;7.93;5.97;;;10.40;99.90;;;;;;4998669;28;20437;-80
2020/12/20 05:26:25;;;;;;;10.37;6.40;;;10.40;99.90;;;;;;4998104;28;20456;-79
2020/12/20 05:28:52;;;;;;;11.13;6.10;;;10.30;99.90;;;;;;4988250;28;20434;-82
2020/12/20 05:31:19;;;;;;;9.70;6.83;;;10.30;99.90;;;;;;4996846;28;20513;-81
2020/12/20 05:34:08;;;;;;;12.07;7.00;;;10.40;99.90;;;;;;4981334;28;20476;-81
2020/12/20 05:36:41;;;;;;;6.80;6.13;;;10.30;99.90;;;;;;4981171;28;20409;-81
2020/12/20 05:39:44;;;;;;;7.33;6.53;;;10.30;99.90;;;;;;5007420;28;20449;-81
2020/12/20 05:42:34;;;;;;;7.63;5.83;;;10.30;99.90;;;;;;5013893;28;20454;-81
2020/12/20 05:45:12;;;;;;;7.33;6.57;;;10.30;99.90;;;;;;4997292;28;20786;-82
2020/12/20 05:47:50;;;;;;;8.03;6.27;;;10.30;99.90;;;;;;4980927;28;20441;-82
2020/12/20 05:50:17;;;;;;;9.10;6.00;;;10.30;99.90;;;;;;4992120;28;20851;-82
2020/12/20 05:53:03;;;;;;;7.30;6.00;;;10.40;99.90;;;;;;4981406;28;20918;-82
2020/12/20 05:55:38;;;;;;;7.40;6.20;;;10.30;99.90;;;;;;5013220;28;20802;-81
2020/12/20 05:58:11;;;;;;;8.33;7.27;;;10.30;99.90;;;;;;5012042;28;20502;-81
2020/12/20 06:00:38;;;;;;;7.77;6.77;;;10.30;99.90;;;;;;4997812;28;20429;-82
2020/12/20 06:03:11;;;;;;;9.23;6.63;;;10.30;99.90;;;;;;5000097;28;20826;-82
2020/12/20 06:05:46;;;;;;;8.20;7.17;;;10.30;99.90;;;;;;5013680;28;20425;-82
2020/12/20 06:08:19;;;;;;;9.40;7.60;;;10.30;99.90;;;;;;4997455;28;20431;-81
2020/12/20 06:10:53;;;;;;;6.87;6.17;;;10.30;99.90;;;;;;5000546;28;20482;-82
2020/12/20 06:13:25;;;;;;;9.90;6.50;;;10.30;99.90;;;;;;4999547;28;20431;-81
2020/12/20 06:15:59;;;;;;;7.37;6.63;;;10.30;99.90;;;;;;4995298;28;20425;-82
2020/12/20 06:18:35;;;;;;;11.70;6.77;;;10.30;99.90;;;;;;4996357;28;20480;-82
2020/12/20 06:21:04;;;;;;;9.20;6.60;;;10.20;99.90;;;;;;5009748;28;20443;-83
2020/12/20 06:23:32;;;;;;;8.30;7.43;;;10.20;99.90;;;;;;4999978;28;20555;-82
2020/12/20 06:25:59;;;;;;;8.80;6.53;;;10.20;99.90;;;;;;5016209;28;20436;-82
2020/12/20 06:28:28;;;;;;;10.30;6.50;;;10.30;99.90;;;;;;5016732;28;20421;-82
2020/12/20 06:30:55;;;;;;;10.30;6.80;;;10.20;99.90;;;;;;5014556;28;20478;-82
2020/12/20 06:33:45;;;;;;;9.50;6.70;;;10.30;99.90;;;;;;5016595;28;20902;-82
2020/12/20 06:36:15;;;;;;;7.23;6.37;;;10.30;99.90;;;;;;4999471;28;20963;-83
2020/12/20 06:38:55;;;;;;;10.30;6.60;;;10.30;99.90;;;;;;5016244;28;20445;-83
2020/12/20 06:41:38;;;;;;;12.20;7.30;;;10.30;99.90;;;;;;5015019;28;20919;-82
2020/12/20 06:44:18;;;;;;;7.13;6.43;;;10.30;99.90;;;;;;5016564;28;20813;-82
2020/12/20 06:46:44;;;;;;;8.13;7.20;;;10.20;99.90;;;;;;5015663;28;20433;-83
2020/12/20 06:49:36;;;;;;;8.63;6.63;;;10.20;99.90;;;;;;5012717;28;20455;-82
2020/12/20 06:52:18;;;;;;;7.00;6.30;;;10.20;99.90;;;;;;4999113;28;20476;-82
2020/12/20 06:55:18;;;;;;;10.73;7.10;;;10.20;99.90;;;;;;5008712;28;20444;-82
2020/12/20 06:58:02;;;;;;;10.60;6.90;;;10.20;99.90;;;;;;5011920;28;20436;-82
2020/12/20 07:00:43;;;;;;;8.97;7.77;;;10.10;99.90;;;;;;4998489;28;20928;-82
2020/12/20 07:03:43;;;;;;;10.53;6.77;;;10.10;99.90;;;;;;4998806;28;20455;-81
2020/12/20 07:06:13;;;;;;;9.70;7.70;;;10.10;99.90;;;;;;4999058;28;20429;-82
2020/12/20 07:08:39;;;;;;;8.80;6.83;;;10.10;99.90;;;;;;4996035;28;20433;-82
2020/12/20 07:11:16;;;;;;;8.90;6.83;;;10.10;99.90;;;;;;4995050;28;20500;-82
2020/12/20 07:13:45;;;;;;;7.90;6.87;;;10.10;99.90;;;;;;4983689;28;20429;-82
2020/12/20 07:16:17;;;;;;;7.97;6.93;;;10.10;99.90;;;;;;4978741;28;20441;-81
2020/12/20 07:18:54;;;;;;;11.20;6.97;;;10.10;99.90;;;;;;5001462;28;20433;-82
2020/12/20 07:21:28;;;;;;;7.93;6.40;;;10.10;99.90;;;;;;4979297;28;20517;-81
2020/12/20 07:24:11;;;;;;;8.20;6.70;;;10.00;99.90;;;;;;4996341;28;20484;-81
2020/12/20 07:26:37;;;;;;;8.07;6.50;;;10.10;99.90;;;;;;4999978;28;20491;-81
2020/12/20 07:29:08;;;;;;;8.70;7.50;;;10.00;99.90;;;;;;5014836;28;20909;-81
2020/12/20 07:31:36;;;;;;;9.20;7.20;;;10.00;99.90;;;;;;4994521;28;20535;-81
2020/12/20 07:34:07;;;;;;;9.00;7.07;;;10.00;99.90;;;;;;4978956;28;20768;-79
2020/12/20 07:36:39;;;;;;;11.90;7.67;;;9.90;99.90;;;;;;4995599;28;20434;-82
2020/12/20 07:39:06;;;;;;;13.63;7.50;;;9.90;99.90;;;;;;4995632;28;20927;-81
2020/12/20 07:41:35;;;;;;;9.90;7.00;;;9.90;99.90;;;;;;4995484;28;20446;-81
2020/12/20 07:44:09;;;;;;;8.27;7.43;;;9.90;99.90;;;;;;4994107;28;20421;-81
2020/12/20 07:46:36;;;;;;;10.37;7.07;;;9.90;99.90;;;;;;4978399;28;20491;-82
2020/12/20 07:49:16;;;;;;;8.53;7.63;;;9.90;99.90;;;;;;4994471;28;20448;-81
2020/12/20 07:51:42;;;;;;;8.73;7.77;;;9.90;99.90;;;;;;4994379;28;20465;-81
2020/12/20 07:54:13;;;;;;;9.30;7.73;;;9.90;99.90;;;;;;4978547;28;20465;-81
2020/12/20 07:56:41;;;;;;;12.50;8.10;;;9.90;99.90;;;;;;4995025;28;20421;-81
2020/12/20 07:59:15;;;;;;;8.60;7.07;;;9.90;99.90;;;;;;4995339;28;20518;-82
2020/12/20 08:01:45;;;;;;;9.13;7.60;;;9.90;99.90;;;;;;4994187;28;20447;-81
2020/12/20 08:04:20;;;;;;;10.10;7.83;;;9.90;99.90;;;;;;4962545;28;20426;-80
2020/12/20 08:06:49;;;;;;;10.03;8.23;;;9.90;99.90;;;;;;4977994;28;20433;-80
2020/12/20 08:09:23;;;;;;;11.70;7.93;;;9.90;99.90;;;;;;4995004;28;20425;-81
2020/12/20 08:11:55;;;;;;;9.60;7.60;;;9.90;99.90;;;;;;4978182;28;20479;-81
2020/12/20 08:14:26;;;;;;;10.70;8.63;;;9.90;99.90;;;;;;4994799;28;20820;-81
2020/12/20 08:16:57;;;;;;;10.17;8.33;;;9.90;99.90;;;;;;4977667;28;20919;-81
2020/12/20 08:19:31;;;;;;;11.87;8.20;;;9.90;99.90;;;;;;4994260;28;20437;-81
2020/12/20 08:22:07;;;;;;;9.70;8.23;;;9.90;99.90;;;;;;4993054;28;20471;-81
2020/12/20 08:24:41;;;;;;;10.77;8.37;;;9.90;99.90;;;;;;4993892;28;20473;-81
2020/12/20 08:27:22;;;;;;;13.17;9.50;;;9.90;99.90;;;;;;4993301;28;20898;-81
2020/12/20 08:29:52;;;;;;;13.17;8.23;;;9.90;99.90;;;;;;4993733;28;20519;-81
2020/12/20 08:32:21;;;;;;;10.43;8.40;;;10.00;99.90;;;;;;4987974;28;20432;-82
2020/12/20 08:34:51;;;;;;;11.73;9.17;;;10.00;99.90;;;;;;4979463;28;20438;-81
2020/12/20 08:37:22;;;;;;;11.33;9.40;;;10.00;99.90;;;;;;4976167;28;20816;-82
2020/12/20 08:39:49;;;;;;;11.60;8.10;;;10.00;99.90;;;;;;4974098;28;20473;-80
2020/12/20 08:42:17;;;;;;;10.20;8.70;;;10.00;99.90;;;;;;4992524;28;20465;-80
2020/12/20 08:44:46;;;;;;;10.97;9.13;;;10.00;99.90;;;;;;4992876;28;20932;-81
2020/12/20 08:47:15;;;;;;;12.57;9.27;;;10.00;99.90;;;;;;4976783;28;20509;-80
2020/12/20 08:50:02;;;;;;;11.17;8.90;;;10.10;99.90;;;;;;4987960;28;20495;-80
2020/12/20 08:52:29;;;;;;;10.87;9.20;;;10.10;99.90;;;;;;4971916;28;20492;-81
2020/12/20 08:54:57;;;;;;;9.80;8.30;;;10.20;99.90;;;;;;4942132;28;20477;-81
2020/12/20 08:57:29;;;;;;;10.83;9.23;;;10.20;99.90;;;;;;4956577;28;20442;-80
2020/12/20 09:00:17;;;;;;;12.80;10.13;;;10.10;99.90;;;;;;4974615;28;20446;-80
2020/12/20 09:02:57;;;;;;;11.10;9.40;;;10.10;99.90;;;;;;4975985;28;20429;-80
2020/12/20 09:05:27;;;;;;;12.67;9.40;;;10.20;99.90;;;;;;4992706;28;20781;-81
2020/12/20 09:08:00;;;;;;;10.70;9.50;;;10.20;99.90;;;;;;4975994;28;20442;-81
2020/12/20 09:10:35;;;;;;;11.87;9.40;;;10.20;99.90;;;;;;4956816;28;20967;-79
2020/12/20 09:13:09;;;;;;;13.63;9.93;;;10.30;99.90;;;;;;4975909;28;20446;-80
2020/12/20 09:15:36;;;;;;;12.40;8.60;;;10.30;99.90;;;;;;4992382;28;20441;-80
2020/12/20 09:18:25;;;;;;;12.93;9.73;;;10.30;99.90;;;;;;4992187;28;20488;-80
2020/12/20 09:20:51;;;;;;;13.13;9.47;;;10.40;99.90;;;;;;4987716;28;20445;-80
2020/12/20 09:23:18;;;;;;;11.10;9.30;;;10.50;99.90;;;;;;4992001;28;20421;-80
2020/12/20 09:25:44;;;;;;;14.13;9.93;;;10.50;99.90;;;;;;5002140;28;20429;-80
2020/12/20 09:28:14;;;;;;;10.83;9.10;;;10.50;99.90;;;;;;4992145;28;20448;-80
2020/12/20 09:30:45;;;;;;;15.00;10.60;;;10.50;99.90;;;;;;4996343;28;20807;-80
2020/12/20 09:33:31;;;;;;;11.47;9.90;;;10.50;99.90;;;;;;4990742;28;20933;-80
2020/12/20 09:36:15;;;;;;;15.17;9.90;;;10.60;99.90;;;;;;4992131;28;20453;-79
2020/12/20 09:38:48;;;;;;;10.90;9.33;;;10.70;99.90;;;;;;4993011;28;20878;-79
2020/12/20 09:41:20;;;;;;;10.20;8.93;;;10.60;99.90;;;;;;4975488;28;20442;-80
2020/12/20 09:43:50;;;;;;;10.43;9.00;;;10.70;99.90;;;;;;4986692;28;20937;-80
2020/12/20 09:46:24;;;;;;;9.83;8.83;;;10.70;99.90;;;;;;4991687;28;20460;-79
2020/12/20 09:48:51;;;;;;;10.20;8.13;;;10.80;99.90;;;;;;4991386;28;20481;-81
2020/12/20 09:51:18;;;;;;;10.70;8.60;;;10.90;99.90;;;;;;4959859;28;20484;-82
2020/12/20 09:53:45;;;;;;;14.73;10.80;;;10.90;99.90;;;;;;4995822;28;20433;-80
2020/12/20 09:56:18;;;;;;;11.60;8.73;;;11.00;99.90;;;;;;4978834;28;20591;-80
2020/12/20 09:58:46;;;;;;;14.00;8.43;;;11.10;99.90;;;;;;4978394;28;20429;-80
2020/12/20 10:01:16;;;;;;;9.07;7.70;;;11.10;99.90;;;;;;4978797;28;20442;-80
2020/12/20 10:03:45;;;;;;;11.00;8.27;;;11.20;99.90;;;;;;4965936;28;20434;-80
2020/12/20 10:06:13;;;;;;;12.23;9.50;;;11.20;99.90;;;;;;4943639;28;20838;-80
2020/12/20 10:08:41;;;;;;;11.40;8.87;;;11.20;99.90;;;;;;4995733;28;20498;-81
2020/12/20 10:11:10;;;;;;;11.60;8.37;;;11.20;99.90;;;;;;4990995;28;20480;-81
2020/12/20 10:13:41;;;;;;;12.90;9.10;;;11.20;99.90;;;;;;4995440;28;20902;-81
2020/12/20 10:16:09;;;;;;;11.17;8.70;;;11.30;99.90;;;;;;4978430;28;20417;-81
2020/12/20 10:18:35;;;;;;;11.07;8.87;;;11.30;99.90;;;;;;4978999;28;20433;-82
2020/12/20 10:21:01;;;;;;;8.80;7.83;;;11.30;99.90;;;;;;4978649;28;20984;-81
2020/12/20 10:23:27;;;;;;;11.77;8.30;;;11.30;99.90;;;;;;4977113;28;20442;-81
2020/12/20 10:25:55;;;;;;;10.57;8.37;;;11.30;99.90;;;;;;4972757;28;20638;-81
2020/12/20 10:28:21;;;;;;;11.47;8.00;;;11.30;99.90;;;;;;4986373;28;20505;-82
2020/12/20 10:30:47;;;;;;;13.07;8.23;;;11.30;99.90;;;;;;4995599;28;20476;-81
2020/12/20 10:33:13;;;;;;;10.97;8.83;;;11.30;99.90;;;;;;5013539;28;20421;-81
2020/12/20 10:35:41;;;;;;;10.37;7.97;;;11.30;99.90;;;;;;5014079;28;20424;-81
2020/12/20 10:38:07;;;;;;;9.83;8.13;;;11.40;99.90;;;;;;5012817;28;20795;-82
2020/12/20 10:40:35;;;;;;;11.90;8.43;;;11.50;99.90;;;;;;5014267;28;20428;-81
2020/12/20 10:43:01;;;;;;;10.30;8.80;;;11.50;99.90;;;;;;5003169;28;20765;-81
2020/12/20 10:45:29;;;;;;;10.70;8.90;;;11.50;99.90;;;;;;5012103;28;20445;-81
2020/12/20 10:47:56;;;;;;;17.43;9.10;;;11.50;99.90;;;;;;4990370;28;20525;-82
2020/12/20 10:50:24;;;;;;;10.20;7.87;;;11.60;99.90;;;;;;5012807;28;20868;-82
2020/12/20 10:52:50;;;;;;;15.37;8.30;;;11.60;99.90;;;;;;4980529;28;20464;-81
2020/12/20 10:55:16;;;;;;;11.50;8.60;;;11.70;99.90;;;;;;5014463;28;20480;-82
2020/12/20 10:57:45;;;;;;;11.03;8.23;;;11.70;99.90;;;;;;4996496;28;20499;-82
2020/12/20 11:00:14;;;;;;;12.70;7.90;;;11.70;99.90;;;;;;4996048;28;20523;-82
2020/12/20 11:02:42;;;;;;;9.27;7.17;;;11.70;99.90;;;;;;5012538;28;20475;-81
2020/12/20 11:05:14;;;;;;;9.47;7.47;;;11.70;99.90;;;;;;4998002;28;20511;-81
2020/12/20 11:07:40;;;;;;;9.33;7.20;;;11.70;99.90;;;;;;5015593;28;20960;-81
2020/12/20 11:10:08;;;;;;;12.73;8.97;;;11.70;99.90;;;;;;4997941;28;20502;-81
2020/12/20 11:12:36;;;;;;;10.83;7.43;;;11.70;99.90;;;;;;5001143;28;20440;-81
2020/12/20 11:15:03;;;;;;;14.27;9.57;;;11.80;99.90;;;;;;5015667;28;20785;-81
2020/12/20 11:17:29;;;;;;;11.00;7.90;;;11.80;99.90;;;;;;5001787;28;20519;-82
2020/12/20 11:19:57;;;;;;;9.47;6.93;;;11.80;99.90;;;;;;5014812;28;20857;-82
2020/12/20 11:22:23;;;;;;;12.90;8.30;;;11.90;99.90;;;;;;4982313;28;20441;-82
2020/12/20 11:24:49;;;;;;;9.70;7.00;;;11.90;99.90;;;;;;4965822;28;20856;-82
2020/12/20 11:27:15;;;;;;;11.23;7.20;;;11.90;99.90;;;;;;5014685;28;20494;-82
2020/12/20 11:29:41;;;;;;;11.80;7.63;;;11.90;99.90;;;;;;4997133;28;20480;-81
2020/12/20 11:32:07;;;;;;;11.40;7.50;;;11.90;99.90;;;;;;5013346;28;20483;-81
2020/12/20 11:34:35;;;;;;;8.43;6.70;;;11.90;99.90;;;;;;4997839;28;20432;-82
2020/12/20 11:37:08;;;;;;;11.30;7.00;;;11.90;99.90;;;;;;5002314;28;20432;-81
2020/12/20 11:39:36;;;;;;;9.93;6.13;;;11.90;99.90;;;;;;5014641;28;20940;-81
2020/12/20 11:42:02;;;;;;;8.90;6.50;;;11.90;99.90;;;;;;4997497;28;20439;-81
2020/12/20 11:44:28;;;;;;;6.90;6.07;;;11.90;99.90;;;;;;5014884;28;20743;-82
2020/12/20 11:46:54;;;;;;;16.17;6.70;;;11.90;99.90;;;;;;4996575;28;20534;-81
2020/12/20 11:49:20;;;;;;;7.57;5.73;;;11.90;99.90;;;;;;5006204;28;20426;-82
2020/12/20 11:51:46;;;;;;;10.50;5.60;;;11.90;99.90;;;;;;4999097;28;21168;-81
2020/12/20 11:54:13;;;;;;;9.07;5.57;;;11.90;99.90;;;;;;5009335;28;20933;-90
2020/12/20 11:56:39;;;;;;;9.27;5.60;;;11.90;99.90;;;;;;4978702;28;20894;-84
2020/12/20 11:59:09;;;;;;;11.63;6.70;;;12.00;99.90;;;;;;5013821;28;20452;-87
2020/12/20 12:01:35;;;;;;;6.00;5.27;;;11.90;99.90;;;;;;4998629;28;20413;-86
2020/12/20 12:04:04;;;;;;;12.80;6.27;;;11.90;99.90;;;;;;5015025;28;20439;-86
2020/12/20 12:06:31;;;;;;;8.80;5.73;;;11.90;99.90;;;;;;5013252;28;20555;-84
2020/12/20 12:08:57;;;;;;;9.67;5.50;;;12.00;99.90;;;;;;4995620;28;20511;-85
2020/12/20 12:11:23;;;;;;;11.97;5.80;;;12.00;99.90;;;;;;5012072;28;20583;-84
2020/12/20 12:13:49;;;;;;;11.47;6.13;;;12.10;99.90;;;;;;4995489;28;20437;-84
2020/12/20 12:16:23;;;;;;;10.40;7.03;;;12.10;99.90;;;;;;4976582;28;21003;-84
2020/12/20 12:18:50;;;;;;;8.57;5.53;;;12.20;99.90;;;;;;5011516;28;20433;-84
2020/12/20 12:21:16;;;;;;;7.33;5.87;;;12.20;99.90;;;;;;5012859;28;20461;-84
2020/12/20 12:23:45;;;;;;;6.83;6.13;;;12.30;99.90;;;;;;4995482;28;20476;-83
2020/12/20 12:26:12;;;;;;;9.30;6.13;;;12.30;99.90;;;;;;4995881;28;20431;-86
2020/12/20 12:28:38;;;;;;;8.97;6.60;;;12.30;99.90;;;;;;4995199;28;20436;-85
2020/12/20 12:31:04;;;;;;;12.07;6.50;;;12.30;99.90;;;;;;4992541;28;21126;-85
2020/12/20 12:33:33;;;;;;;8.33;6.07;;;12.30;99.90;;;;;;4982481;28;20435;-84
2020/12/20 12:35:59;;;;;;;10.63;6.17;;;12.40;99.90;;;;;;4992029;28;20430;-84
2020/12/20 12:38:28;;;;;;;10.57;6.00;;;12.40;99.90;;;;;;4988340;28;20525;-85
2020/12/20 12:40:54;;;;;;;11.30;6.00;;;12.50;99.90;;;;;;4994177;28;20524;-85
2020/12/20 12:43:22;;;;;;;13.63;6.50;;;12.60;99.90;;;;;;4961565;28;20434;-85
2020/12/20 12:45:52;;;;;;;7.23;6.37;;;12.50;99.90;;;;;;4994986;28;20406;-84
2020/12/20 12:48:18;;;;;;;12.90;6.57;;;12.50;99.90;;;;;;4977509;28;20435;-85
2020/12/20 12:50:44;;;;;;;13.90;6.87;;;12.50;99.90;;;;;;4986945;28;21022;-84
2020/12/20 12:53:10;;;;;;;8.17;6.70;;;12.50;99.90;;;;;;4993251;28;20428;-87
2020/12/20 12:55:36;;;;;;;10.20;6.30;;;12.50;99.90;;;;;;4959356;28;20847;-87
2020/12/20 12:58:02;;;;;;;7.10;5.57;;;12.50;99.90;;;;;;4983958;28;20428;-85
2020/12/20 13:00:30;;;;;;;9.70;7.30;;;12.60;99.90;;;;;;4961894;28;20434;-88
2020/12/20 13:02:56;;;;;;;11.13;5.93;;;12.60;99.90;;;;;;4992878;28;20513;-86
2020/12/20 13:05:26;;;;;;;7.93;6.17;;;12.60;99.90;;;;;;4993741;28;20899;-84